Etusivu
METAR-TAF:

METAR-TAF

Lentoasemat :

Shell Mera, Ecuador

Leveyspiiri: 01-30-19S, Pituuspiiri: 078-03-46W, korkeus merenpinnasta: 1056 m

Tämänhetkinen sää

Tämä raportti tehtiin 31 minuuttia sitten, kello 12.00 UTC
Tuuli 2 kn luoteesta
Lämpötila 20°C
Kosteus 94%
Ilmanpaine 1019 hPa
Näkyvyys: 2000 m
Hajanaisia pilviä 300 ft:n korkeudessa
Hajonneita pilviä 2000 ft:n korkeudessa
Pilvistä 8000 ft:n korkeudessa
heikkoa sadetta

METAR: SESM 021200Z 32002KT 2000 -RA SCT003 BKN020 OVC080 20/19 Q1019 RMK A3010

Aika: 07:31 (12:31 UTC)


TAF: puuttuu

Säähavainnot ja -ennusteet yli 4000 lentoasemalta (METAR- ja TAF-raportit).

Käytössä olevat sääasemat on merkitty karttaan keltaisilla ja punaisilla pisteillä.

Aseta hiiri pisteen päälle nähdäksesi sääaseman nimen.

Klikkaa sitten nähdäksesi säähavainnot ja -ennusteet.

Kartan vaihtaminen: klikkaa mustalla rastilla varustettuja vihreitä pisteitä, niin voit zoomata sisään; viivalla varustettua vihreää pistettä, niin voit zoomata ulos tai vihreitä nuolia, niin pääset viereisille kartoille.


METAR-TAF: